sensor_id;sensor_type;location;lat;lon;timestamp;temperature;humidity
55219;DHT22;65463;43.864;20.136;2023-02-24T00:11:46;230.50;2252.80
55219;DHT22;65463;43.864;20.136;2023-02-24T00:14:14;205.70;2252.80
55219;DHT22;65463;43.864;20.136;2023-02-24T00:16:44;205.70;2252.80
55219;DHT22;65463;43.864;20.136;2023-02-24T00:19:15;205.50;2252.80
55219;DHT22;65463;43.864;20.136;2023-02-24T00:21:42;205.40;2252.80
55219;DHT22;65463;43.864;20.136;2023-02-24T00:24:08;205.60;2252.80
55219;DHT22;65463;43.864;20.136;2023-02-24T00:26:34;230.70;2252.80
55219;DHT22;65463;43.864;20.136;2023-02-24T00:29:02;230.70;2252.80
55219;DHT22;65463;43.864;20.136;2023-02-24T00:51:21;256.00;2252.80
55219;DHT22;65463;43.864;20.136;2023-02-24T00:53:53;231.30;2252.80
55219;DHT22;65463;43.864;20.136;2023-02-24T00:56:25;231.30;2252.80
55219;DHT22;65463;43.864;20.136;2023-02-24T00:58:52;231.30;2252.80
55219;DHT22;65463;43.864;20.136;2023-02-24T01:01:22;231.20;2252.80
55219;DHT22;65463;43.864;20.136;2023-02-24T01:03:49;231.10;2252.80
55219;DHT22;65463;43.864;20.136;2023-02-24T01:06:19;231.20;2252.80
55219;DHT22;65463;43.864;20.136;2023-02-24T01:08:46;231.20;2252.80
55219;DHT22;65463;43.864;20.136;2023-02-24T01:11:15;231.20;2252.80
55219;DHT22;65463;43.864;20.136;2023-02-24T01:14:03;231.30;2252.80
55219;DHT22;65463;43.864;20.136;2023-02-24T01:16:29;231.10;2252.80
55219;DHT22;65463;43.864;20.136;2023-02-24T01:18:55;230.90;2252.80
55219;DHT22;65463;43.864;20.136;2023-02-24T01:21:21;230.80;2252.80
55219;DHT22;65463;43.864;20.136;2023-02-24T01:23:51;230.90;2252.80
55219;DHT22;65463;43.864;20.136;2023-02-24T01:26:17;230.80;2252.80
55219;DHT22;65463;43.864;20.136;2023-02-24T01:28:44;230.60;2252.80
55219;DHT22;65463;43.864;20.136;2023-02-24T01:31:15;230.80;2252.80
55219;DHT22;65463;43.864;20.136;2023-02-24T01:33:43;230.80;2252.80
55219;DHT22;65463;43.864;20.136;2023-02-24T01:36:16;231.00;2252.80
55219;DHT22;65463;43.864;20.136;2023-02-24T01:38:43;231.10;2252.80
55219;DHT22;65463;43.864;20.136;2023-02-24T01:41:11;230.80;2252.80
55219;DHT22;65463;43.864;20.136;2023-02-24T01:46:20;230.70;2252.80
55219;DHT22;65463;43.864;20.136;2023-02-24T01:48:51;230.70;2252.80
55219;DHT22;65463;43.864;20.136;2023-02-24T01:51:19;230.70;2252.80
55219;DHT22;65463;43.864;20.136;2023-02-24T01:53:45;230.80;2252.80
55219;DHT22;65463;43.864;20.136;2023-02-24T01:56:12;231.10;2252.80
55219;DHT22;65463;43.864;20.136;2023-02-24T01:58:38;231.00;2252.80
55219;DHT22;65463;43.864;20.136;2023-02-24T02:01:06;231.10;2252.80
55219;DHT22;65463;43.864;20.136;2023-02-24T02:03:39;231.10;2252.80
55219;DHT22;65463;43.864;20.136;2023-02-24T02:06:12;230.60;2252.80
55219;DHT22;65463;43.864;20.136;2023-02-24T02:08:41;205.70;2252.80
55219;DHT22;65463;43.864;20.136;2023-02-24T02:11:11;205.50;2252.80
55219;DHT22;65463;43.864;20.136;2023-02-24T02:13:41;205.60;2252.80
55219;DHT22;65463;43.864;20.136;2023-02-24T02:19:17;205.70;2252.80
55219;DHT22;65463;43.864;20.136;2023-02-24T02:24:48;205.70;2252.80
55219;DHT22;65463;43.864;20.136;2023-02-24T02:27:42;230.60;2252.80
55219;DHT22;65463;43.864;20.136;2023-02-24T02:36:04;230.70;2252.80
55219;DHT22;65463;43.864;20.136;2023-02-24T02:38:47;230.80;2252.80
55219;DHT22;65463;43.864;20.136;2023-02-24T02:43:52;205.70;2252.80
55219;DHT22;65463;43.864;20.136;2023-02-24T02:46:33;205.50;2252.80
55219;DHT22;65463;43.864;20.136;2023-02-24T02:49:12;205.60;2252.80
55219;DHT22;65463;43.864;20.136;2023-02-24T02:51:46;230.50;2252.80
55219;DHT22;65463;43.864;20.136;2023-02-24T02:54:39;230.60;2252.80
55219;DHT22;65463;43.864;20.136;2023-02-24T02:57:30;205.70;2252.80
55219;DHT22;65463;43.864;20.136;2023-02-24T03:00:05;205.60;2252.80
55219;DHT22;65463;43.864;20.136;2023-02-24T03:02:36;205.60;2252.80
55219;DHT22;65463;43.864;20.136;2023-02-24T03:05:06;230.50;2252.80
55219;DHT22;65463;43.864;20.136;2023-02-24T03:07:39;205.70;2252.80
55219;DHT22;65463;43.864;20.136;2023-02-24T03:10:21;230.60;2252.80
55219;DHT22;65463;43.864;20.136;2023-02-24T03:12:51;230.90;2252.80
55219;DHT22;65463;43.864;20.136;2023-02-24T03:15:19;231.00;2252.80
55219;DHT22;65463;43.864;20.136;2023-02-24T03:17:48;230.90;2252.80
55219;DHT22;65463;43.864;20.136;2023-02-24T03:20:21;231.10;2252.80
55219;DHT22;65463;43.864;20.136;2023-02-24T03:23:06;231.10;2252.80
55219;DHT22;65463;43.864;20.136;2023-02-24T03:25:45;231.20;2252.80
55219;DHT22;65463;43.864;20.136;2023-02-24T03:29:00;230.90;2252.80
55219;DHT22;65463;43.864;20.136;2023-02-24T03:31:09;230.90;2252.80
55219;DHT22;65463;43.864;20.136;2023-02-24T03:33:40;230.60;2252.80
55219;DHT22;65463;43.864;20.136;2023-02-24T03:36:09;230.60;2252.80
55219;DHT22;65463;43.864;20.136;2023-02-24T03:38:40;230.80;2252.80
55219;DHT22;65463;43.864;20.136;2023-02-24T03:41:08;230.80;2252.80
55219;DHT22;65463;43.864;20.136;2023-02-24T03:43:39;230.80;2252.80
55219;DHT22;65463;43.864;20.136;2023-02-24T03:46:09;230.90;2252.80
55219;DHT22;65463;43.864;20.136;2023-02-24T03:48:41;230.50;2252.80
55219;DHT22;65463;43.864;20.136;2023-02-24T03:51:16;230.50;2252.80
55219;DHT22;65463;43.864;20.136;2023-02-24T04:00:07;230.80;2252.80
55219;DHT22;65463;43.864;20.136;2023-02-24T04:02:58;230.80;2252.80
55219;DHT22;65463;43.864;20.136;2023-02-24T04:05:29;230.40;2252.80
55219;DHT22;65463;43.864;20.136;2023-02-24T04:25:49;205.70;2252.80
55219;DHT22;65463;43.864;20.136;2023-02-24T04:28:16;205.30;2252.80
55219;DHT22;65463;43.864;20.136;2023-02-24T04:30:47;205.70;2252.80
55219;DHT22;65463;43.864;20.136;2023-02-24T04:33:14;205.20;2252.80
55219;DHT22;65463;43.864;20.136;2023-02-24T04:35:40;205.20;2252.80
55219;DHT22;65463;43.864;20.136;2023-02-24T04:38:10;205.30;2252.80
55219;DHT22;65463;43.864;20.136;2023-02-24T04:40:36;205.30;2252.80
55219;DHT22;65463;43.864;20.136;2023-02-24T04:43:01;205.20;2252.80
55219;DHT22;65463;43.864;20.136;2023-02-24T04:45:29;205.30;2252.80
55219;DHT22;65463;43.864;20.136;2023-02-24T04:47:57;205.40;2252.80
55219;DHT22;65463;43.864;20.136;2023-02-24T04:50:31;205.40;2252.80
55219;DHT22;65463;43.864;20.136;2023-02-24T04:53:09;205.10;2252.80
55219;DHT22;65463;43.864;20.136;2023-02-24T04:55:38;205.20;2252.80
55219;DHT22;65463;43.864;20.136;2023-02-24T04:58:06;205.20;2252.80
55219;DHT22;65463;43.864;20.136;2023-02-24T05:00:34;205.10;2252.80
55219;DHT22;65463;43.864;20.136;2023-02-24T05:03:02;205.20;2252.80
55219;DHT22;65463;43.864;20.136;2023-02-24T05:05:29;205.10;2252.80
55219;DHT22;65463;43.864;20.136;2023-02-24T06:27:52;179.40;2252.80
55219;DHT22;65463;43.864;20.136;2023-02-24T06:30:21;179.20;2252.80
55219;DHT22;65463;43.864;20.136;2023-02-24T06:55:08;180.00;2252.80
55219;DHT22;65463;43.864;20.136;2023-02-24T07:05:51;180.10;2252.80
55219;DHT22;65463;43.864;20.136;2023-02-24T07:08:40;179.80;2252.80
55219;DHT22;65463;43.864;20.136;2023-02-24T07:11:08;179.60;2252.80
55219;DHT22;65463;43.864;20.136;2023-02-24T07:13:34;179.70;2252.80
55219;DHT22;65463;43.864;20.136;2023-02-24T07:16:01;180.00;2252.80
55219;DHT22;65463;43.864;20.136;2023-02-24T07:18:37;179.60;2252.80
55219;DHT22;65463;43.864;20.136;2023-02-24T07:21:06;179.60;2252.80
55219;DHT22;65463;43.864;20.136;2023-02-24T07:23:43;179.50;2252.80
55219;DHT22;65463;43.864;20.136;2023-02-24T07:26:12;179.60;2252.80
55219;DHT22;65463;43.864;20.136;2023-02-24T07:46:13;205.70;2252.80
55219;DHT22;65463;43.864;20.136;2023-02-24T07:48:40;205.50;2252.80
55219;DHT22;65463;43.864;20.136;2023-02-24T07:51:15;205.30;2252.80
55219;DHT22;65463;43.864;20.136;2023-02-24T07:53:42;205.50;2252.80
55219;DHT22;65463;43.864;20.136;2023-02-24T07:56:12;205.60;2252.80
55219;DHT22;65463;43.864;20.136;2023-02-24T07:58:42;205.60;2252.80
55219;DHT22;65463;43.864;20.136;2023-02-24T08:01:12;230.40;2252.80
55219;DHT22;65463;43.864;20.136;2023-02-24T08:03:58;230.70;2252.80
55219;DHT22;65463;43.864;20.136;2023-02-24T08:06:31;231.10;2252.80
55219;DHT22;65463;43.864;20.136;2023-02-24T08:09:14;256.10;2252.80
55219;DHT22;65463;43.864;20.136;2023-02-24T08:11:55;256.40;2252.80
55219;DHT22;65463;43.864;20.136;2023-02-24T08:14:27;256.70;2252.80
55219;DHT22;65463;43.864;20.136;2023-02-24T08:16:58;281.60;2278.40
55219;DHT22;65463;43.864;20.136;2023-02-24T08:19:28;281.90;2278.40
55219;DHT22;65463;43.864;20.136;2023-02-24T08:21:59;307.40;2304.00
55219;DHT22;65463;43.864;20.136;2023-02-24T08:24:47;307.70;2304.00
55219;DHT22;65463;43.864;20.136;2023-02-24T08:27:19;282.40;2278.40
55219;DHT22;65463;43.864;20.136;2023-02-24T08:29:53;282.00;2278.40
55219;DHT22;65463;43.864;20.136;2023-02-24T08:32:27;307.40;2304.00
55219;DHT22;65463;43.864;20.136;2023-02-24T08:35:28;282.50;2278.40
55219;DHT22;65463;43.864;20.136;2023-02-24T08:38:04;282.40;2278.40
55219;DHT22;65463;43.864;20.136;2023-02-24T08:40:38;282.10;2278.40
55219;DHT22;65463;43.864;20.136;2023-02-24T08:43:17;281.90;2278.40
55219;DHT22;65463;43.864;20.136;2023-02-24T08:46:04;282.40;2278.40
55219;DHT22;65463;43.864;20.136;2023-02-24T08:48:38;307.40;2304.00
55219;DHT22;65463;43.864;20.136;2023-02-24T08:53:48;307.20;2304.00
55219;DHT22;65463;43.864;20.136;2023-02-24T08:58:53;307.70;2304.00
55219;DHT22;65463;43.864;20.136;2023-02-24T09:03:55;332.80;2329.60
55219;DHT22;65463;43.864;20.136;2023-02-24T09:22:15;358.90;2329.60
55219;DHT22;65463;43.864;20.136;2023-02-24T09:25:05;358.80;2329.60
55219;DHT22;65463;43.864;20.136;2023-02-24T09:43:23;461.60;1996.80
55219;DHT22;65463;43.864;20.136;2023-02-24T09:53:35;486.80;1561.60
55219;DHT22;65463;43.864;20.136;2023-02-24T10:07:31;512.20;1612.80
55219;DHT22;65463;43.864;20.136;2023-02-24T10:10:24;487.00;1561.60
55219;DHT22;65463;43.864;20.136;2023-02-24T10:13:15;487.00;1638.40
55219;DHT22;65463;43.864;20.136;2023-02-24T10:15:48;487.30;1612.80
55219;DHT22;65463;43.864;20.136;2023-02-24T10:18:45;512.70;1561.60
55219;DHT22;65463;43.864;20.136;2023-02-24T10:39:36;538.10;1484.80
55219;DHT22;65463;43.864;20.136;2023-02-24T10:42:07;537.70;1433.60
55219;DHT22;65463;43.864;20.136;2023-02-24T10:49:59;538.40;1382.40
55219;DHT22;65463;43.864;20.136;2023-02-24T10:55:04;538.50;1331.20
55219;DHT22;65463;43.864;20.136;2023-02-24T11:14:18;563.80;1305.60
